sensor_id;sensor_type;location;lat;lon;timestamp;pressure;altitude;pressure_sealevel;temperature;humidity
60479;BME280;46321;48.398;11.754;2022-11-20T00:01:14;95992.13;;;4.74;92.42
60479;BME280;46321;48.398;11.754;2022-11-20T00:03:39;95993.41;;;4.70;92.31
60479;BME280;46321;48.398;11.754;2022-11-20T00:06:08;96001.50;;;4.77;92.01
60479;BME280;46321;48.398;11.754;2022-11-20T00:08:34;95999.59;;;4.69;92.18
60479;BME280;46321;48.398;11.754;2022-11-20T00:11:08;96005.25;;;4.74;91.96
60479;BME280;46321;48.398;11.754;2022-11-20T00:13:33;96004.78;;;4.79;91.93
60479;BME280;46321;48.398;11.754;2022-11-20T00:16:00;96001.94;;;4.72;92.06
60479;BME280;46321;48.398;11.754;2022-11-20T00:18:26;96003.50;;;4.65;92.59
60479;BME280;46321;48.398;11.754;2022-11-20T00:20:51;96010.53;;;4.64;92.59
60479;BME280;46321;48.398;11.754;2022-11-20T00:23:17;96012.72;;;4.69;92.66
60479;BME280;46321;48.398;11.754;2022-11-20T00:25:42;96015.41;;;4.77;91.99
60479;BME280;46321;48.398;11.754;2022-11-20T00:28:07;96010.47;;;4.74;92.18
60479;BME280;46321;48.398;11.754;2022-11-20T00:30:33;96008.31;;;4.69;92.29
60479;BME280;46321;48.398;11.754;2022-11-20T00:32:58;96019.97;;;4.75;92.28
60479;BME280;46321;48.398;11.754;2022-11-20T00:35:23;96017.06;;;4.78;92.39
60479;BME280;46321;48.398;11.754;2022-11-20T00:37:49;96018.03;;;4.77;92.36
60479;BME280;46321;48.398;11.754;2022-11-20T00:40:14;96015.41;;;4.77;92.28
60479;BME280;46321;48.398;11.754;2022-11-20T00:42:39;96019.53;;;4.80;91.93
60479;BME280;46321;48.398;11.754;2022-11-20T00:45:05;96012.50;;;4.80;91.84
60479;BME280;46321;48.398;11.754;2022-11-20T00:47:30;96014.59;;;4.77;92.42
60479;BME280;46321;48.398;11.754;2022-11-20T00:49:56;96010.03;;;4.79;91.97
60479;BME280;46321;48.398;11.754;2022-11-20T00:52:21;96010.63;;;4.73;92.65
60479;BME280;46321;48.398;11.754;2022-11-20T00:54:46;96015.41;;;4.77;92.50
60479;BME280;46321;48.398;11.754;2022-11-20T00:57:11;96012.22;;;4.84;92.18
60479;BME280;46321;48.398;11.754;2022-11-20T00:59:37;96011.66;;;4.80;92.21
60479;BME280;46321;48.398;11.754;2022-11-20T01:02:02;96021.66;;;4.76;92.07
60479;BME280;46321;48.398;11.754;2022-11-20T01:04:27;96026.28;;;4.83;91.61
60479;BME280;46321;48.398;11.754;2022-11-20T01:06:52;96029.06;;;4.81;92.24
60479;BME280;46321;48.398;11.754;2022-11-20T01:09:18;96024.66;;;4.81;92.34
60479;BME280;46321;48.398;11.754;2022-11-20T01:11:44;96035.13;;;4.81;92.13
60479;BME280;46321;48.398;11.754;2022-11-20T01:14:15;96037.31;;;4.68;92.55
60479;BME280;46321;48.398;11.754;2022-11-20T01:16:43;96041.63;;;4.77;92.61
60479;BME280;46321;48.398;11.754;2022-11-20T01:22:31;96040.84;;;4.77;92.39
60479;BME280;46321;48.398;11.754;2022-11-20T01:25:15;96040.97;;;4.75;92.18
60479;BME280;46321;48.398;11.754;2022-11-20T01:34:26;96035.34;;;4.70;91.86
60479;BME280;46321;48.398;11.754;2022-11-20T01:36:54;96032.06;;;4.68;91.73
60479;BME280;46321;48.398;11.754;2022-11-20T01:39:27;96022.16;;;4.62;91.39
60479;BME280;46321;48.398;11.754;2022-11-20T01:41:55;96061.72;;;4.87;91.31
60479;BME280;46321;48.398;11.754;2022-11-20T01:44:58;96016.09;;;4.61;91.24
60479;BME280;46321;48.398;11.754;2022-11-20T01:47:36;96052.78;;;4.79;91.15
60479;BME280;46321;48.398;11.754;2022-11-20T01:50:14;96030.41;;;4.67;91.09
60479;BME280;46321;48.398;11.754;2022-11-20T01:53:05;96043.44;;;4.77;90.92
60479;BME280;46321;48.398;11.754;2022-11-20T01:55:35;96042.91;;;4.73;90.82
60479;BME280;46321;48.398;11.754;2022-11-20T01:58:02;96024.47;;;4.65;91.05
60479;BME280;46321;48.398;11.754;2022-11-20T02:00:28;96044.78;;;4.81;90.71
60479;BME280;46321;48.398;11.754;2022-11-20T02:03:08;96029.50;;;4.76;90.56
60479;BME280;46321;48.398;11.754;2022-11-20T02:05:59;96031.06;;;4.69;90.42
60479;BME280;46321;48.398;11.754;2022-11-20T02:08:27;96030.13;;;4.70;90.21
60479;BME280;46321;48.398;11.754;2022-11-20T02:10:53;96032.41;;;4.73;90.31
60479;BME280;46321;48.398;11.754;2022-11-20T02:13:19;96017.06;;;4.60;90.47
60479;BME280;46321;48.398;11.754;2022-11-20T02:16:04;96027.72;;;4.58;90.48
60479;BME280;46321;48.398;11.754;2022-11-20T02:18:38;96045.97;;;4.68;90.49
60479;BME280;46321;48.398;11.754;2022-11-20T02:21:09;96053.28;;;4.75;90.67
60479;BME280;46321;48.398;11.754;2022-11-20T02:24:07;96040.44;;;4.72;90.32
60479;BME280;46321;48.398;11.754;2022-11-20T02:29:17;96036.41;;;4.59;89.60
60479;BME280;46321;48.398;11.754;2022-11-20T02:31:52;96021.91;;;4.55;89.43
60479;BME280;46321;48.398;11.754;2022-11-20T02:34:24;96055.41;;;4.79;89.20
60479;BME280;46321;48.398;11.754;2022-11-20T02:36:51;96062.16;;;4.82;89.04
60479;BME280;46321;48.398;11.754;2022-11-20T02:39:18;96041.28;;;4.72;89.24
60479;BME280;46321;48.398;11.754;2022-11-20T02:41:49;96016.38;;;4.58;88.97
60479;BME280;46321;48.398;11.754;2022-11-20T02:44:26;96037.19;;;4.60;89.03
60479;BME280;46321;48.398;11.754;2022-11-20T02:46:57;96027.72;;;4.58;89.33
60479;BME280;46321;48.398;11.754;2022-11-20T02:49:28;96029.50;;;4.58;88.99
60479;BME280;46321;48.398;11.754;2022-11-20T02:51:54;96006.28;;;4.45;89.20
60479;BME280;46321;48.398;11.754;2022-11-20T02:54:32;96041.03;;;4.65;88.80
60479;BME280;46321;48.398;11.754;2022-11-20T02:56:57;96003.94;;;4.42;89.12
60479;BME280;46321;48.398;11.754;2022-11-20T02:59:25;96026.56;;;4.43;88.95
60479;BME280;46321;48.398;11.754;2022-11-20T03:02:15;96025.69;;;4.52;88.93
60479;BME280;46321;48.398;11.754;2022-11-20T03:04:51;96037.81;;;4.53;88.97
60479;BME280;46321;48.398;11.754;2022-11-20T03:07:27;96014.78;;;4.29;88.77
60479;BME280;46321;48.398;11.754;2022-11-20T03:10:38;96048.06;;;4.46;89.21
60479;BME280;46321;48.398;11.754;2022-11-20T03:13:08;96043.88;;;4.54;88.51
60479;BME280;46321;48.398;11.754;2022-11-20T03:15:33;96037.81;;;4.53;88.39
60479;BME280;46321;48.398;11.754;2022-11-20T03:18:00;96045.50;;;4.55;88.64
60479;BME280;46321;48.398;11.754;2022-11-20T03:20:25;96040.75;;;4.50;88.76
60479;BME280;46321;48.398;11.754;2022-11-20T03:22:53;96047.47;;;4.53;88.67
60479;BME280;46321;48.398;11.754;2022-11-20T03:25:19;96046.22;;;4.57;88.23
60479;BME280;46321;48.398;11.754;2022-11-20T03:27:44;96047.91;;;4.48;88.72
60479;BME280;46321;48.398;11.754;2022-11-20T03:30:09;96044.91;;;4.43;88.78
60479;BME280;46321;48.398;11.754;2022-11-20T03:32:35;96055.63;;;4.50;88.64
60479;BME280;46321;48.398;11.754;2022-11-20T03:35:00;96049.28;;;4.52;88.53
60479;BME280;46321;48.398;11.754;2022-11-20T03:37:25;96039.69;;;4.43;88.75
60479;BME280;46321;48.398;11.754;2022-11-20T03:39:51;96044.91;;;4.43;88.43
60479;BME280;46321;48.398;11.754;2022-11-20T03:42:16;96047.38;;;4.44;88.52
60479;BME280;46321;48.398;11.754;2022-11-20T03:44:59;96043.94;;;4.44;88.30
60479;BME280;46321;48.398;11.754;2022-11-20T03:47:25;96048.88;;;4.47;88.23
60479;BME280;46321;48.398;11.754;2022-11-20T03:49:50;96043.94;;;4.44;88.30
60479;BME280;46321;48.398;11.754;2022-11-20T03:52:15;96043.13;;;4.43;88.08
60479;BME280;46321;48.398;11.754;2022-11-20T03:54:41;96046.94;;;4.49;87.88
60479;BME280;46321;48.398;11.754;2022-11-20T03:57:06;96048.72;;;4.49;87.95
60479;BME280;46321;48.398;11.754;2022-11-20T03:59:31;96050.59;;;4.38;88.42
60479;BME280;46321;48.398;11.754;2022-11-20T04:01:56;96041.03;;;4.47;87.84
60479;BME280;46321;48.398;11.754;2022-11-20T04:04:22;96053.00;;;4.50;87.88
60479;BME280;46321;48.398;11.754;2022-11-20T04:06:47;96049.56;;;4.49;87.65
60479;BME280;46321;48.398;11.754;2022-11-20T04:09:13;96050.41;;;4.50;87.57
60479;BME280;46321;48.398;11.754;2022-11-20T04:11:40;96056.16;;;4.53;87.61
60479;BME280;46321;48.398;11.754;2022-11-20T04:14:06;96053.28;;;4.46;87.40
60479;BME280;46321;48.398;11.754;2022-11-20T04:16:36;96055.09;;;4.46;87.26
60479;BME280;46321;48.398;11.754;2022-11-20T04:19:04;96053.28;;;4.46;87.17
60479;BME280;46321;48.398;11.754;2022-11-20T04:21:30;96041.19;;;4.45;86.98
60479;BME280;46321;48.398;11.754;2022-11-20T04:23:56;96047.22;;;4.46;87.19
60479;BME280;46321;48.398;11.754;2022-11-20T04:26:24;96050.69;;;4.46;87.25
60479;BME280;46321;48.398;11.754;2022-11-20T04:28:49;96047.81;;;4.40;87.36
60479;BME280;46321;48.398;11.754;2022-11-20T04:31:20;96043.16;;;4.33;87.62
60479;BME280;46321;48.398;11.754;2022-11-20T04:33:46;96038.44;;;4.37;87.27
60479;BME280;46321;48.398;11.754;2022-11-20T04:36:17;96045.19;;;4.40;87.29
60479;BME280;46321;48.398;11.754;2022-11-20T04:38:43;96043.66;;;4.47;86.71
60479;BME280;46321;48.398;11.754;2022-11-20T04:41:16;96036.75;;;4.46;86.73
60479;BME280;46321;48.398;11.754;2022-11-20T04:43:46;96042.88;;;4.37;86.87
60479;BME280;46321;48.398;11.754;2022-11-20T04:46:13;96046.19;;;4.39;87.07
60479;BME280;46321;48.398;11.754;2022-11-20T04:48:38;96056.78;;;4.37;86.88
60479;BME280;46321;48.398;11.754;2022-11-20T04:51:03;96044.53;;;4.38;86.19
60479;BME280;46321;48.398;11.754;2022-11-20T04:53:29;96046.03;;;4.40;85.74
60479;BME280;46321;48.398;11.754;2022-11-20T04:56:02;96053.75;;;4.42;86.04
60479;BME280;46321;48.398;11.754;2022-11-20T04:58:28;96051.03;;;4.33;85.88
60479;BME280;46321;48.398;11.754;2022-11-20T05:01:01;96054.16;;;4.37;85.99
60479;BME280;46321;48.398;11.754;2022-11-20T05:03:27;96055.00;;;4.38;85.96
60479;BME280;46321;48.398;11.754;2022-11-20T05:05:52;96058.47;;;4.38;85.28
60479;BME280;46321;48.398;11.754;2022-11-20T05:08:17;96048.50;;;4.42;85.36
60479;BME280;46321;48.398;11.754;2022-11-20T05:10:43;96058.84;;;4.43;85.21
60479;BME280;46321;48.398;11.754;2022-11-20T05:13:08;96050.31;;;4.41;85.18
60479;BME280;46321;48.398;11.754;2022-11-20T05:15:33;96049.47;;;4.41;85.11
60479;BME280;46321;48.398;11.754;2022-11-20T05:17:58;96051.13;;;4.42;84.64
60479;BME280;46321;48.398;11.754;2022-11-20T05:20:24;96063.69;;;4.38;84.60
60479;BME280;46321;48.398;11.754;2022-11-20T05:22:49;96060.78;;;4.41;84.57
60479;BME280;46321;48.398;11.754;2022-11-20T05:25:14;96064.91;;;4.44;84.26
60479;BME280;46321;48.398;11.754;2022-11-20T05:27:39;96063.69;;;4.38;84.54
60479;BME280;46321;48.398;11.754;2022-11-20T05:30:05;96061.06;;;4.38;84.69
60479;BME280;46321;48.398;11.754;2022-11-20T05:32:31;96058.63;;;4.37;84.37
60479;BME280;46321;48.398;11.754;2022-11-20T05:34:56;96053.22;;;4.38;83.89
60479;BME280;46321;48.398;11.754;2022-11-20T05:37:21;96052.78;;;4.43;83.32
60479;BME280;46321;48.398;11.754;2022-11-20T05:39:47;96054.03;;;4.39;84.22
60479;BME280;46321;48.398;11.754;2022-11-20T05:42:12;96051.72;;;4.35;84.08
60479;BME280;46321;48.398;11.754;2022-11-20T05:45:00;96044.97;;;4.33;83.69
60479;BME280;46321;48.398;11.754;2022-11-20T05:47:28;96053.38;;;4.37;83.81
60479;BME280;46321;48.398;11.754;2022-11-20T05:49:53;96046.31;;;4.37;83.71
60479;BME280;46321;48.398;11.754;2022-11-20T05:52:19;96046.19;;;4.39;83.84
60479;BME280;46321;48.398;11.754;2022-11-20T05:54:44;96047.81;;;4.40;83.67
60479;BME280;46321;48.398;11.754;2022-11-20T05:57:10;96055.56;;;4.41;83.67
60479;BME280;46321;48.398;11.754;2022-11-20T05:59:35;96055.69;;;4.40;83.57
60479;BME280;46321;48.398;11.754;2022-11-20T06:02:00;96056.44;;;4.32;83.83
60479;BME280;46321;48.398;11.754;2022-11-20T06:04:25;96066.34;;;4.28;83.70
60479;BME280;46321;48.398;11.754;2022-11-20T06:06:51;96072.16;;;4.32;83.97
60479;BME280;46321;48.398;11.754;2022-11-20T06:09:16;96067.72;;;4.32;83.53
60479;BME280;46321;48.398;11.754;2022-11-20T06:11:41;96074.22;;;4.28;83.65
60479;BME280;46321;48.398;11.754;2022-11-20T06:14:06;96076.47;;;4.23;83.66
60479;BME280;46321;48.398;11.754;2022-11-20T06:16:32;96074.28;;;4.18;83.75
60479;BME280;46321;48.398;11.754;2022-11-20T06:18:57;96074.41;;;4.17;83.72
60479;BME280;46321;48.398;11.754;2022-11-20T06:21:22;96080.63;;;4.16;83.60
60479;BME280;46321;48.398;11.754;2022-11-20T06:23:49;96079.13;;;4.13;83.82
60479;BME280;46321;48.398;11.754;2022-11-20T06:26:18;96090.88;;;4.09;83.71
60479;BME280;46321;48.398;11.754;2022-11-20T06:28:43;96089.94;;;4.00;84.15
60479;BME280;46321;48.398;11.754;2022-11-20T06:31:11;96086.06;;;4.04;84.14
60479;BME280;46321;48.398;11.754;2022-11-20T06:33:36;96086.31;;;4.01;84.41
60479;BME280;46321;48.398;11.754;2022-11-20T06:36:02;96086.47;;;3.99;84.76
60479;BME280;46321;48.398;11.754;2022-11-20T06:38:28;96083.88;;;3.99;84.97
60479;BME280;46321;48.398;11.754;2022-11-20T06:40:54;96083.88;;;3.99;85.17
60479;BME280;46321;48.398;11.754;2022-11-20T06:43:21;96091.72;;;3.99;84.99
60479;BME280;46321;48.398;11.754;2022-11-20T06:45:55;96094.59;;;4.06;85.43
60479;BME280;46321;48.398;11.754;2022-11-20T06:48:22;96093.47;;;4.09;85.06
60479;BME280;46321;48.398;11.754;2022-11-20T06:50:47;96095.56;;;4.05;85.18
60479;BME280;46321;48.398;11.754;2022-11-20T06:53:12;96108.09;;;4.11;84.96
60479;BME280;46321;48.398;11.754;2022-11-20T06:55:42;96106.44;;;4.10;85.01
60479;BME280;46321;48.398;11.754;2022-11-20T06:58:08;96107.94;;;4.13;84.48
60479;BME280;46321;48.398;11.754;2022-11-20T07:00:34;96112.50;;;4.11;84.53
60479;BME280;46321;48.398;11.754;2022-11-20T07:03:03;96110.63;;;4.03;84.76
60479;BME280;46321;48.398;11.754;2022-11-20T07:05:28;96112.09;;;4.06;84.31
60479;BME280;46321;48.398;11.754;2022-11-20T07:07:55;96116.13;;;4.00;84.81
60479;BME280;46321;48.398;11.754;2022-11-20T07:10:21;96114.19;;;4.02;84.45
60479;BME280;46321;48.398;11.754;2022-11-20T07:12:51;96118.84;;;4.08;84.79
60479;BME280;46321;48.398;11.754;2022-11-20T07:15:23;96117.31;;;4.16;84.29
60479;BME280;46321;48.398;11.754;2022-11-20T07:17:48;96114.53;;;4.17;84.16
60479;BME280;46321;48.398;11.754;2022-11-20T07:20:14;96117.84;;;4.19;84.33
60479;BME280;46321;48.398;11.754;2022-11-20T07:22:40;96122.38;;;4.27;83.61
60479;BME280;46321;48.398;11.754;2022-11-20T07:25:06;96118.09;;;4.26;83.38
60479;BME280;46321;48.398;11.754;2022-11-20T07:27:32;96119.34;;;4.22;83.40
60479;BME280;46321;48.398;11.754;2022-11-20T07:29:57;96124.00;;;4.28;83.60
60479;BME280;46321;48.398;11.754;2022-11-20T07:32:22;96125.81;;;4.28;83.31
60479;BME280;46321;48.398;11.754;2022-11-20T07:34:48;96124.41;;;4.33;83.52
60479;BME280;46321;48.398;11.754;2022-11-20T07:37:14;96122.47;;;4.35;83.50
60479;BME280;46321;48.398;11.754;2022-11-20T07:39:39;96123.81;;;4.40;83.30
60479;BME280;46321;48.398;11.754;2022-11-20T07:42:06;96121.63;;;4.35;83.01
60479;BME280;46321;48.398;11.754;2022-11-20T07:44:32;96129.38;;;4.37;83.01
60479;BME280;46321;48.398;11.754;2022-11-20T07:46:57;96121.19;;;4.40;82.81
60479;BME280;46321;48.398;11.754;2022-11-20T07:49:22;96123.31;;;4.36;82.66
60479;BME280;46321;48.398;11.754;2022-11-20T07:51:50;96129.75;;;4.42;82.80
60479;BME280;46321;48.398;11.754;2022-11-20T07:54:15;96124.22;;;4.45;82.21
60479;BME280;46321;48.398;11.754;2022-11-20T07:56:41;96128.34;;;4.47;82.41
60479;BME280;46321;48.398;11.754;2022-11-20T07:59:06;96128.88;;;4.51;81.99
60479;BME280;46321;48.398;11.754;2022-11-20T08:01:31;96126.25;;;4.51;81.79
60479;BME280;46321;48.398;11.754;2022-11-20T08:03:56;96118.09;;;4.54;81.52
60479;BME280;46321;48.398;11.754;2022-11-20T08:06:22;96124.72;;;4.58;81.87
60479;BME280;46321;48.398;11.754;2022-11-20T08:08:47;96124.41;;;4.62;81.67
60479;BME280;46321;48.398;11.754;2022-11-20T08:11:12;96128.59;;;4.54;81.41
60479;BME280;46321;48.398;11.754;2022-11-20T08:13:56;96126.88;;;4.63;81.34
60479;BME280;46321;48.398;11.754;2022-11-20T08:16:37;96125.38;;;4.61;81.31
60479;BME280;46321;48.398;11.754;2022-11-20T08:19:03;96121.06;;;4.69;81.31
60479;BME280;46321;48.398;11.754;2022-11-20T08:21:28;96126.81;;;4.73;81.15
60479;BME280;46321;48.398;11.754;2022-11-20T08:23:54;96123.91;;;4.76;80.75
60479;BME280;46321;48.398;11.754;2022-11-20T08:26:21;96129.84;;;4.78;80.49
60479;BME280;46321;48.398;11.754;2022-11-20T08:28:46;96120.69;;;4.83;80.47
60479;BME280;46321;48.398;11.754;2022-11-20T08:31:11;96126.34;;;4.88;79.90
60479;BME280;46321;48.398;11.754;2022-11-20T08:33:37;96119.72;;;4.84;79.90
60479;BME280;46321;48.398;11.754;2022-11-20T08:36:03;96119.28;;;4.88;80.23
60479;BME280;46321;48.398;11.754;2022-11-20T08:38:29;96124.06;;;4.93;79.89
60479;BME280;46321;48.398;11.754;2022-11-20T08:40:59;96125.81;;;5.02;79.50
60479;BME280;46321;48.398;11.754;2022-11-20T08:43:43;96128.16;;;5.06;78.68
60479;BME280;46321;48.398;11.754;2022-11-20T08:46:08;96117.81;;;5.04;79.00
60479;BME280;46321;48.398;11.754;2022-11-20T08:51:01;96125.69;;;5.04;78.04
60479;BME280;46321;48.398;11.754;2022-11-20T08:53:27;96120.78;;;5.09;78.57
60479;BME280;46321;48.398;11.754;2022-11-20T08:55:53;96121.91;;;5.07;78.92
60479;BME280;46321;48.398;11.754;2022-11-20T08:58:18;96119.81;;;5.10;78.39
60479;BME280;46321;48.398;11.754;2022-11-20T09:00:43;96131.00;;;5.12;77.94
60479;BME280;46321;48.398;11.754;2022-11-20T09:03:09;96122.91;;;5.24;78.10
60479;BME280;46321;48.398;11.754;2022-11-20T09:05:34;96111.25;;;5.26;78.06
60479;BME280;46321;48.398;11.754;2022-11-20T09:07:59;96117.19;;;5.29;77.45
60479;BME280;46321;48.398;11.754;2022-11-20T09:10:28;96118.69;;;5.31;77.67
60479;BME280;46321;48.398;11.754;2022-11-20T09:12:54;96115.91;;;5.33;77.82
60479;BME280;46321;48.398;11.754;2022-11-20T09:15:20;96117.09;;;5.38;78.30
60479;BME280;46321;48.398;11.754;2022-11-20T09:17:52;96115.22;;;5.49;78.17
60479;BME280;46321;48.398;11.754;2022-11-20T09:20:18;96119.03;;;5.55;77.83
60479;BME280;46321;48.398;11.754;2022-11-20T09:22:43;96126.47;;;5.59;77.64
60479;BME280;46321;48.398;11.754;2022-11-20T09:25:09;96118.44;;;5.61;77.43
60479;BME280;46321;48.398;11.754;2022-11-20T09:27:34;96120.38;;;5.59;76.76
60479;BME280;46321;48.398;11.754;2022-11-20T09:30:03;96111.84;;;5.57;76.99
60479;BME280;46321;48.398;11.754;2022-11-20T09:32:29;96115.13;;;5.59;76.77
60479;BME280;46321;48.398;11.754;2022-11-20T09:34:54;96109.72;;;5.60;76.92
60479;BME280;46321;48.398;11.754;2022-11-20T09:37:19;96108.50;;;5.73;76.58
60479;BME280;46321;48.398;11.754;2022-11-20T09:39:44;96105.25;;;5.79;76.43
60479;BME280;46321;48.398;11.754;2022-11-20T09:42:20;96099.22;;;5.87;76.31
60479;BME280;46321;48.398;11.754;2022-11-20T09:50:28;96097.00;;;6.01;76.10
60479;BME280;46321;48.398;11.754;2022-11-20T09:53:10;96106.69;;;6.00;75.38
60479;BME280;46321;48.398;11.754;2022-11-20T09:55:37;96097.00;;;6.01;75.34
60479;BME280;46321;48.398;11.754;2022-11-20T09:58:06;96096.69;;;6.04;74.88
60479;BME280;46321;48.398;11.754;2022-11-20T10:00:35;96100.84;;;6.06;74.80
60479;BME280;46321;48.398;11.754;2022-11-20T10:03:06;96099.06;;;6.07;73.98
60479;BME280;46321;48.398;11.754;2022-11-20T10:05:43;96093.16;;;6.13;73.93
60479;BME280;46321;48.398;11.754;2022-11-20T10:10:44;96093.66;;;6.17;74.01
60479;BME280;46321;48.398;11.754;2022-11-20T10:13:36;96095.53;;;6.25;73.94
60479;BME280;46321;48.398;11.754;2022-11-20T10:16:32;96089.28;;;6.26;74.18
60479;BME280;46321;48.398;11.754;2022-11-20T10:22:09;96087.31;;;6.36;72.98
60479;BME280;46321;48.398;11.754;2022-11-20T10:24:48;96102.25;;;6.71;72.34
60479;BME280;46321;48.398;11.754;2022-11-20T10:27:39;96091.25;;;6.92;71.32
60479;BME280;46321;48.398;11.754;2022-11-20T10:30:12;96094.75;;;7.01;70.70
60479;BME280;46321;48.398;11.754;2022-11-20T10:32:40;96093.78;;;7.19;70.30
60479;BME280;46321;48.398;11.754;2022-11-20T10:37:41;96083.88;;;7.46;69.44
60479;BME280;46321;48.398;11.754;2022-11-20T10:42:42;96084.72;;;7.63;67.81
60479;BME280;46321;48.398;11.754;2022-11-20T10:47:42;96086.19;;;7.66;68.40
60479;BME280;46321;48.398;11.754;2022-11-20T10:50:14;96079.28;;;7.56;67.41
60479;BME280;46321;48.398;11.754;2022-11-20T10:58:28;96066.94;;;8.22;65.15
60479;BME280;46321;48.398;11.754;2022-11-20T11:01:06;96074.94;;;7.97;66.19
60479;BME280;46321;48.398;11.754;2022-11-20T11:03:38;96072.69;;;7.69;66.18
60479;BME280;46321;48.398;11.754;2022-11-20T11:06:10;96072.38;;;7.47;66.82
60479;BME280;46321;48.398;11.754;2022-11-20T11:08:39;96066.63;;;7.43;67.51
60479;BME280;46321;48.398;11.754;2022-11-20T11:11:25;96068.25;;;7.19;67.88
60479;BME280;46321;48.398;11.754;2022-11-20T11:13:51;96065.16;;;7.07;67.88
60479;BME280;46321;48.398;11.754;2022-11-20T11:18:46;96056.09;;;7.10;68.54
60479;BME280;46321;48.398;11.754;2022-11-20T11:21:11;96060.84;;;7.06;68.68
60479;BME280;46321;48.398;11.754;2022-11-20T11:23:42;96050.16;;;7.08;68.41
60479;BME280;46321;48.398;11.754;2022-11-20T11:26:23;96052.78;;;6.99;69.40
60479;BME280;46321;48.398;11.754;2022-11-20T11:29:03;96047.03;;;6.96;69.08
60479;BME280;46321;48.398;11.754;2022-11-20T11:31:31;96030.44;;;6.95;69.29
60479;BME280;46321;48.398;11.754;2022-11-20T11:34:23;96054.59;;;6.91;69.28
60479;BME280;46321;48.398;11.754;2022-11-20T11:36:55;96043.75;;;6.85;68.85
60479;BME280;46321;48.398;11.754;2022-11-20T11:39:21;96050.47;;;6.88;69.04
60479;BME280;46321;48.398;11.754;2022-11-20T11:41:48;96046.22;;;6.87;68.60
60479;BME280;46321;48.398;11.754;2022-11-20T11:44:19;96040.94;;;6.95;68.57
60479;BME280;46321;48.398;11.754;2022-11-20T11:47:05;96038.50;;;7.19;68.83
60479;BME280;46321;48.398;11.754;2022-11-20T11:49:34;96032.41;;;7.18;68.01
60479;BME280;46321;48.398;11.754;2022-11-20T11:52:20;96043.59;;;7.12;68.10
60479;BME280;46321;48.398;11.754;2022-11-20T11:54:53;96038.50;;;7.19;68.25
60479;BME280;46321;48.398;11.754;2022-11-20T11:57:28;96029.63;;;7.12;69.51
60479;BME280;46321;48.398;11.754;2022-11-20T12:00:03;96033.22;;;7.02;69.56
60479;BME280;46321;48.398;11.754;2022-11-20T12:02:36;96036.16;;;6.99;69.56
60479;BME280;46321;48.398;11.754;2022-11-20T12:05:09;96036.53;;;7.21;69.73
60479;BME280;46321;48.398;11.754;2022-11-20T12:07:41;96032.72;;;7.15;69.49
60479;BME280;46321;48.398;11.754;2022-11-20T12:10:22;96038.66;;;7.17;69.09
60479;BME280;46321;48.398;11.754;2022-11-20T12:12:54;96031.91;;;7.06;68.89
60479;BME280;46321;48.398;11.754;2022-11-20T12:15:26;96031.44;;;7.03;69.15
60479;BME280;46321;48.398;11.754;2022-11-20T12:17:53;96047.53;;;6.99;69.54
60479;BME280;46321;48.398;11.754;2022-11-20T12:20:24;96033.53;;;6.99;69.86
60479;BME280;46321;48.398;11.754;2022-11-20T12:22:59;96033.22;;;7.10;69.57
60479;BME280;46321;48.398;11.754;2022-11-20T12:25:29;96036.84;;;7.01;69.39
60479;BME280;46321;48.398;11.754;2022-11-20T12:28:18;96030.91;;;6.99;69.50
60479;BME280;46321;48.398;11.754;2022-11-20T12:52:52;96031.25;;;7.04;69.68
60479;BME280;46321;48.398;11.754;2022-11-20T12:55:36;96033.53;;;6.99;69.96
60479;BME280;46321;48.398;11.754;2022-11-20T13:00:47;96036.34;;;6.89;70.27
60479;BME280;46321;48.398;11.754;2022-11-20T13:03:24;96027.97;;;6.85;70.80
60479;BME280;46321;48.398;11.754;2022-11-20T13:08:38;96023.16;;;6.64;71.09
60479;BME280;46321;48.398;11.754;2022-11-20T13:11:23;96025.63;;;6.66;71.34
60479;BME280;46321;48.398;11.754;2022-11-20T13:19:02;96012.16;;;6.60;71.42
60479;BME280;46321;48.398;11.754;2022-11-20T13:21:42;96015.09;;;6.57;71.59
60479;BME280;46321;48.398;11.754;2022-11-20T13:24:32;96014.44;;;6.55;71.90
60479;BME280;46321;48.398;11.754;2022-11-20T13:29:42;96007.19;;;6.66;71.75
60479;BME280;46321;48.398;11.754;2022-11-20T13:32:20;96013.63;;;6.71;71.85
60479;BME280;46321;48.398;11.754;2022-11-20T13:34:56;96010.19;;;6.62;72.48
60479;BME280;46321;48.398;11.754;2022-11-20T13:37:36;96015.75;;;6.59;72.70
60479;BME280;46321;48.398;11.754;2022-11-20T13:42:46;96012.38;;;6.24;73.72
60479;BME280;46321;48.398;11.754;2022-11-20T13:45:24;96006.16;;;6.25;73.59
60479;BME280;46321;48.398;11.754;2022-11-20T13:47:52;96003.66;;;6.23;73.83
60479;BME280;46321;48.398;11.754;2022-11-20T13:50:18;96017.31;;;6.27;73.96
60479;BME280;46321;48.398;11.754;2022-11-20T13:52:55;96002.03;;;6.22;73.83
60479;BME280;46321;48.398;11.754;2022-11-20T13:55:23;96006.94;;;6.25;74.54
60479;BME280;46321;48.398;11.754;2022-11-20T14:00:25;95996.59;;;6.15;74.24
60479;BME280;46321;48.398;11.754;2022-11-20T14:05:34;96000.53;;;6.11;73.81
60479;BME280;46321;48.398;11.754;2022-11-20T14:08:03;96000.84;;;6.16;73.84
60479;BME280;46321;48.398;11.754;2022-11-20T14:10:29;95998.41;;;6.23;74.14
60479;BME280;46321;48.398;11.754;2022-11-20T14:12:55;96001.84;;;6.15;74.73
60479;BME280;46321;48.398;11.754;2022-11-20T14:15:32;96003.16;;;6.11;74.58
60479;BME280;46321;48.398;11.754;2022-11-20T14:17:58;96005.97;;;6.18;74.83
60479;BME280;46321;48.398;11.754;2022-11-20T14:20:27;96003.47;;;6.16;74.44
60479;BME280;46321;48.398;11.754;2022-11-20T14:22:54;95975.88;;;6.12;74.24
60479;BME280;46321;48.398;11.754;2022-11-20T14:25:21;95998.19;;;6.08;75.00
60479;BME280;46321;48.398;11.754;2022-11-20T14:27:51;95999.53;;;6.12;74.72
60479;BME280;46321;48.398;11.754;2022-11-20T14:30:26;96004.28;;;6.09;74.33
60479;BME280;46321;48.398;11.754;2022-11-20T14:32:54;96000.66;;;6.10;74.89
60479;BME280;46321;48.398;11.754;2022-11-20T14:35:26;96002.63;;;6.07;74.47
60479;BME280;46321;48.398;11.754;2022-11-20T14:37:52;96000.78;;;6.00;74.98